sensor_id;sensor_type;location;lat;lon;timestamp;pressure;altitude;pressure_sealevel;temperature;humidity
49461;BME280;35355;49.198;-0.368;2023-12-28T00:00:15;100691.50;;;11.47;71.34
49461;BME280;35355;49.198;-0.368;2023-12-28T00:02:41;100686.31;;;11.45;71.57
49461;BME280;35355;49.198;-0.368;2023-12-28T00:05:06;100694.25;;;11.47;71.56
49461;BME280;35355;49.198;-0.368;2023-12-28T00:07:32;100697.81;;;11.47;71.51
49461;BME280;35355;49.198;-0.368;2023-12-28T00:10:05;100695.88;;;11.48;71.81
49461;BME280;35355;49.198;-0.368;2023-12-28T00:12:34;100683.03;;;11.48;71.87
49461;BME280;35355;49.198;-0.368;2023-12-28T00:15:05;100688.78;;;11.47;71.86
49461;BME280;35355;49.198;-0.368;2023-12-28T00:17:31;100685.50;;;11.50;71.70
49461;BME280;35355;49.198;-0.368;2023-12-28T00:20:04;100678.69;;;11.47;71.39
49461;BME280;35355;49.198;-0.368;2023-12-28T00:22:29;100694.25;;;11.47;71.81
49461;BME280;35355;49.198;-0.368;2023-12-28T00:25:00;100687.41;;;11.44;71.69
49461;BME280;35355;49.198;-0.368;2023-12-28T00:27:31;100687.13;;;11.35;71.96
49461;BME280;35355;49.198;-0.368;2023-12-28T00:29:58;100699.72;;;11.41;71.83
49461;BME280;35355;49.198;-0.368;2023-12-28T00:32:26;100672.31;;;11.26;71.87
49461;BME280;35355;49.198;-0.368;2023-12-28T00:34:51;100699.13;;;11.39;71.82
49461;BME280;35355;49.198;-0.368;2023-12-28T00:37:17;100700.78;;;11.35;71.65
49461;BME280;35355;49.198;-0.368;2023-12-28T00:39:45;100705.69;;;11.33;71.85
49461;BME280;35355;49.198;-0.368;2023-12-28T00:42:17;100706.53;;;11.34;71.44
49461;BME280;35355;49.198;-0.368;2023-12-28T00:44:52;100686.25;;;11.19;71.38
49461;BME280;35355;49.198;-0.368;2023-12-28T00:47:18;100713.06;;;11.33;71.65
49461;BME280;35355;49.198;-0.368;2023-12-28T00:49:43;100713.34;;;11.31;71.56
49461;BME280;35355;49.198;-0.368;2023-12-28T00:52:08;100713.03;;;11.28;71.73
49461;BME280;35355;49.198;-0.368;2023-12-28T00:54:35;100707.28;;;11.29;71.78
49461;BME280;35355;49.198;-0.368;2023-12-28T00:57:03;100706.75;;;11.27;71.58
49461;BME280;35355;49.198;-0.368;2023-12-28T00:59:28;100718.22;;;11.29;71.34
49461;BME280;35355;49.198;-0.368;2023-12-28T01:01:57;100702.63;;;11.24;71.92
49461;BME280;35355;49.198;-0.368;2023-12-28T01:04:23;100710.56;;;11.26;71.32
49461;BME280;35355;49.198;-0.368;2023-12-28T01:06:52;100719.03;;;11.24;71.29
49461;BME280;35355;49.198;-0.368;2023-12-28T01:09:18;100705.63;;;11.23;71.50
49461;BME280;35355;49.198;-0.368;2023-12-28T01:11:44;100707.56;;;11.22;71.57
49461;BME280;35355;49.198;-0.368;2023-12-28T01:14:09;100713.81;;;11.18;71.23
49461;BME280;35355;49.198;-0.368;2023-12-28T01:16:47;100716.56;;;11.18;71.74
49461;BME280;35355;49.198;-0.368;2023-12-28T01:19:12;100722.56;;;11.20;71.15
49461;BME280;35355;49.198;-0.368;2023-12-28T01:21:45;100717.91;;;11.15;71.67
49461;BME280;35355;49.198;-0.368;2023-12-28T01:24:11;100724.75;;;11.18;71.09
49461;BME280;35355;49.198;-0.368;2023-12-28T01:26:39;100734.03;;;11.17;71.22
49461;BME280;35355;49.198;-0.368;2023-12-28T01:29:05;100737.28;;;11.14;71.39
49461;BME280;35355;49.198;-0.368;2023-12-28T01:31:30;100742.75;;;11.19;71.52
49461;BME280;35355;49.198;-0.368;2023-12-28T01:33:56;100743.31;;;11.16;71.52
49461;BME280;35355;49.198;-0.368;2023-12-28T01:36:22;100744.97;;;11.17;71.24
49461;BME280;35355;49.198;-0.368;2023-12-28T01:38:56;100741.94;;;11.13;71.46
49461;BME280;35355;49.198;-0.368;2023-12-28T01:41:22;100754.50;;;11.14;70.98
49461;BME280;35355;49.198;-0.368;2023-12-28T01:43:47;100760.25;;;11.18;71.66
49461;BME280;35355;49.198;-0.368;2023-12-28T01:46:17;100755.06;;;11.16;71.55
49461;BME280;35355;49.198;-0.368;2023-12-28T01:48:44;100767.06;;;11.15;71.24
49461;BME280;35355;49.198;-0.368;2023-12-28T01:51:11;100754.22;;;11.16;71.50
49461;BME280;35355;49.198;-0.368;2023-12-28T01:53:37;100753.41;;;11.15;71.34
49461;BME280;35355;49.198;-0.368;2023-12-28T01:56:03;100756.41;;;11.14;71.29
49461;BME280;35355;49.198;-0.368;2023-12-28T01:58:37;100760.75;;;11.10;71.33
49461;BME280;35355;49.198;-0.368;2023-12-28T02:01:03;100765.16;;;11.11;71.10
49461;BME280;35355;49.198;-0.368;2023-12-28T02:03:32;100761.84;;;11.09;71.19
49461;BME280;35355;49.198;-0.368;2023-12-28T02:05:58;100769.47;;;11.06;71.18
49461;BME280;35355;49.198;-0.368;2023-12-28T02:08:27;100763.75;;;11.08;71.47
49461;BME280;35355;49.198;-0.368;2023-12-28T02:10:58;100771.41;;;11.06;71.38
49461;BME280;35355;49.198;-0.368;2023-12-28T02:13:36;100759.63;;;11.00;70.88
49461;BME280;35355;49.198;-0.368;2023-12-28T02:16:25;100771.13;;;11.08;71.22
49461;BME280;35355;49.198;-0.368;2023-12-28T02:18:51;100777.69;;;11.06;71.41
49461;BME280;35355;49.198;-0.368;2023-12-28T02:21:20;100769.47;;;11.06;71.17
49461;BME280;35355;49.198;-0.368;2023-12-28T02:23:49;100775.50;;;11.09;71.19
49461;BME280;35355;49.198;-0.368;2023-12-28T02:26:17;100774.69;;;11.08;71.48
49461;BME280;35355;49.198;-0.368;2023-12-28T02:28:49;100774.94;;;11.06;71.25
49461;BME280;35355;49.198;-0.368;2023-12-28T02:31:34;100779.88;;;11.04;71.47
49461;BME280;35355;49.198;-0.368;2023-12-28T02:34:22;100768.34;;;10.97;70.83
49461;BME280;35355;49.198;-0.368;2023-12-28T02:36:59;100762.03;;;10.97;71.20
49461;BME280;35355;49.198;-0.368;2023-12-28T02:39:27;100762.88;;;10.97;71.32
49461;BME280;35355;49.198;-0.368;2023-12-28T02:41:54;100783.13;;;11.01;70.92
49461;BME280;35355;49.198;-0.368;2023-12-28T02:44:21;100768.88;;;10.99;71.25
49461;BME280;35355;49.198;-0.368;2023-12-28T02:46:46;100780.94;;;11.03;71.02
49461;BME280;35355;49.198;-0.368;2023-12-28T02:49:14;100783.66;;;11.03;70.56
49461;BME280;35355;49.198;-0.368;2023-12-28T02:51:46;100781.47;;;11.00;70.91
49461;BME280;35355;49.198;-0.368;2023-12-28T02:54:12;100789.41;;;11.07;71.02
49461;BME280;35355;49.198;-0.368;2023-12-28T02:56:42;100782.03;;;11.02;71.18
49461;BME280;35355;49.198;-0.368;2023-12-28T02:59:10;100779.88;;;11.04;70.61
49461;BME280;35355;49.198;-0.368;2023-12-28T03:01:35;100799.53;;;11.06;71.08
49461;BME280;35355;49.198;-0.368;2023-12-28T03:04:06;100796.25;;;11.04;70.61
49461;BME280;35355;49.198;-0.368;2023-12-28T03:06:31;100793.47;;;10.99;70.49
49461;BME280;35355;49.198;-0.368;2023-12-28T03:08:57;100790.22;;;11.02;70.81
49461;BME280;35355;49.198;-0.368;2023-12-28T03:11:30;100785.53;;;10.98;70.82
49461;BME280;35355;49.198;-0.368;2023-12-28T03:13:58;100796.53;;;11.03;71.04
49461;BME280;35355;49.198;-0.368;2023-12-28T03:16:24;100793.78;;;11.03;71.14
49461;BME280;35355;49.198;-0.368;2023-12-28T03:18:50;100799.25;;;11.03;70.91
49461;BME280;35355;49.198;-0.368;2023-12-28T03:21:16;100795.94;;;11.01;71.14
49461;BME280;35355;49.198;-0.368;2023-12-28T03:23:44;100792.94;;;11.02;71.07
49461;BME280;35355;49.198;-0.368;2023-12-28T03:26:14;100802.25;;;11.01;71.41
49461;BME280;35355;49.198;-0.368;2023-12-28T03:28:40;100795.94;;;11.01;71.45
49461;BME280;35355;49.198;-0.368;2023-12-28T03:31:06;100786.94;;;11.00;71.29
49461;BME280;35355;49.198;-0.368;2023-12-28T03:33:32;100781.72;;;10.99;71.14
49461;BME280;35355;49.198;-0.368;2023-12-28T03:35:57;100775.97;;;10.95;71.12
49461;BME280;35355;49.198;-0.368;2023-12-28T03:38:23;100776.28;;;10.99;71.24
49461;BME280;35355;49.198;-0.368;2023-12-28T03:41:15;100782.25;;;10.96;71.13
49461;BME280;35355;49.198;-0.368;2023-12-28T03:43:41;100780.59;;;10.95;71.11
49461;BME280;35355;49.198;-0.368;2023-12-28T03:46:07;100779.81;;;10.94;71.47
49461;BME280;35355;49.198;-0.368;2023-12-28T03:48:32;100782.78;;;10.93;71.46
49461;BME280;35355;49.198;-0.368;2023-12-28T03:50:58;100778.66;;;10.90;71.11
49461;BME280;35355;49.198;-0.368;2023-12-28T03:53:34;100765.22;;;10.78;71.14
49461;BME280;35355;49.198;-0.368;2023-12-28T03:56:00;100774.28;;;10.89;71.16
49461;BME280;35355;49.198;-0.368;2023-12-28T03:58:25;100773.75;;;10.87;71.64
49461;BME280;35355;49.198;-0.368;2023-12-28T04:00:58;100777.53;;;10.86;71.56
49461;BME280;35355;49.198;-0.368;2023-12-28T04:03:23;100776.41;;;10.82;71.54
49461;BME280;35355;49.198;-0.368;2023-12-28T04:05:50;100760.63;;;10.84;71.74
49461;BME280;35355;49.198;-0.368;2023-12-28T04:08:16;100767.13;;;10.78;71.36
49461;BME280;35355;49.198;-0.368;2023-12-28T04:10:48;100783.00;;;10.86;71.60
49461;BME280;35355;49.198;-0.368;2023-12-28T04:13:13;100776.41;;;10.82;71.42
49461;BME280;35355;49.198;-0.368;2023-12-28T04:15:41;100779.19;;;10.87;71.59
49461;BME280;35355;49.198;-0.368;2023-12-28T04:18:08;100796.41;;;10.87;71.39
49461;BME280;35355;49.198;-0.368;2023-12-28T04:20:33;100794.50;;;10.88;71.29
49461;BME280;35355;49.198;-0.368;2023-12-28T04:23:02;100797.25;;;10.88;71.66
49461;BME280;35355;49.198;-0.368;2023-12-28T04:25:27;100796.41;;;10.87;71.29
49461;BME280;35355;49.198;-0.368;2023-12-28T04:27:56;100795.59;;;10.87;71.57
49461;BME280;35355;49.198;-0.368;2023-12-28T04:30:25;100783.53;;;10.83;71.44
49461;BME280;35355;49.198;-0.368;2023-12-28T04:32:51;100785.47;;;10.87;71.42
49461;BME280;35355;49.198;-0.368;2023-12-28T04:35:16;100794.19;;;10.84;71.53
49461;BME280;35355;49.198;-0.368;2023-12-28T04:37:47;100795.59;;;10.87;71.44
49461;BME280;35355;49.198;-0.368;2023-12-28T04:40:13;100797.75;;;10.85;71.44
49461;BME280;35355;49.198;-0.368;2023-12-28T04:42:45;100794.72;;;10.81;71.33
49461;BME280;35355;49.198;-0.368;2023-12-28T04:45:11;100784.31;;;10.78;71.44
49461;BME280;35355;49.198;-0.368;2023-12-28T04:47:39;100793.31;;;10.79;71.04
49461;BME280;35355;49.198;-0.368;2023-12-28T04:50:08;100792.78;;;10.77;71.38
49461;BME280;35355;49.198;-0.368;2023-12-28T04:52:37;100793.03;;;10.75;71.45
49461;BME280;35355;49.198;-0.368;2023-12-28T04:55:03;100778.78;;;10.68;71.35
49461;BME280;35355;49.198;-0.368;2023-12-28T04:57:32;100797.41;;;10.76;71.08
49461;BME280;35355;49.198;-0.368;2023-12-28T05:00:01;100789.47;;;10.75;70.90
49461;BME280;35355;49.198;-0.368;2023-12-28T05:02:26;100787.59;;;10.75;70.83
49461;BME280;35355;49.198;-0.368;2023-12-28T05:04:52;100790.03;;;10.77;71.19
49461;BME280;35355;49.198;-0.368;2023-12-28T05:07:18;100787.59;;;10.80;71.12
49461;BME280;35355;49.198;-0.368;2023-12-28T05:09:46;100780.25;;;10.81;71.21
49461;BME280;35355;49.198;-0.368;2023-12-28T05:12:12;100779.16;;;10.82;70.77
49461;BME280;35355;49.198;-0.368;2023-12-28T05:14:38;100784.59;;;10.82;70.59
49461;BME280;35355;49.198;-0.368;2023-12-28T05:17:06;100780.81;;;10.83;70.74
49461;BME280;35355;49.198;-0.368;2023-12-28T05:19:31;100781.06;;;10.81;70.63
49461;BME280;35355;49.198;-0.368;2023-12-28T05:21:57;100791.19;;;10.81;70.97
49461;BME280;35355;49.198;-0.368;2023-12-28T05:24:23;100794.47;;;10.83;70.47
49461;BME280;35355;49.198;-0.368;2023-12-28T05:26:51;100787.88;;;10.79;70.86
49461;BME280;35355;49.198;-0.368;2023-12-28T05:29:16;100777.44;;;10.70;70.50
49461;BME280;35355;49.198;-0.368;2023-12-28T05:31:42;100800.44;;;10.80;70.82
49461;BME280;35355;49.198;-0.368;2023-12-28T05:37:05;100798.50;;;10.75;70.76
49461;BME280;35355;49.198;-0.368;2023-12-28T05:39:30;100807.78;;;10.74;70.49
49461;BME280;35355;49.198;-0.368;2023-12-28T05:41:55;100805.31;;;10.73;70.78
49461;BME280;35355;49.198;-0.368;2023-12-28T05:44:21;100805.31;;;10.73;70.43
49461;BME280;35355;49.198;-0.368;2023-12-28T05:46:49;100809.09;;;10.71;70.52
49461;BME280;35355;49.198;-0.368;2023-12-28T05:49:14;100810.47;;;10.69;70.42
49461;BME280;35355;49.198;-0.368;2023-12-28T05:51:40;100816.19;;;10.67;70.55
49461;BME280;35355;49.198;-0.368;2023-12-28T05:54:06;100801.16;;;10.65;70.68
49461;BME280;35355;49.198;-0.368;2023-12-28T05:56:34;100810.72;;;10.67;70.77
49461;BME280;35355;49.198;-0.368;2023-12-28T05:59:06;100799.75;;;10.62;70.40
49461;BME280;35355;49.198;-0.368;2023-12-28T06:01:32;100802.22;;;10.64;70.44
49461;BME280;35355;49.198;-0.368;2023-12-28T06:04:05;100805.75;;;10.64;70.93
49461;BME280;35355;49.198;-0.368;2023-12-28T06:06:30;100802.50;;;10.62;70.75
49461;BME280;35355;49.198;-0.368;2023-12-28T06:09:02;100796.75;;;10.59;70.58
49461;BME280;35355;49.198;-0.368;2023-12-28T06:11:28;100805.75;;;10.59;70.57
49461;BME280;35355;49.198;-0.368;2023-12-28T06:13:54;100806.25;;;10.56;70.80
49461;BME280;35355;49.198;-0.368;2023-12-28T06:16:19;100813.91;;;10.54;71.04
49461;BME280;35355;49.198;-0.368;2023-12-28T06:18:47;100803.22;;;10.52;70.97
49461;BME280;35355;49.198;-0.368;2023-12-28T06:21:13;100807.31;;;10.50;70.66
49461;BME280;35355;49.198;-0.368;2023-12-28T06:23:39;100814.97;;;10.53;70.97
49461;BME280;35355;49.198;-0.368;2023-12-28T06:26:08;100814.72;;;10.55;70.84
49461;BME280;35355;49.198;-0.368;2023-12-28T06:28:33;100812.75;;;10.50;70.92
49461;BME280;35355;49.198;-0.368;2023-12-28T06:30:59;100828.34;;;10.55;70.94
49461;BME280;35355;49.198;-0.368;2023-12-28T06:33:27;100828.63;;;10.53;71.07
49461;BME280;35355;49.198;-0.368;2023-12-28T06:35:56;100828.03;;;10.51;70.93
49461;BME280;35355;49.198;-0.368;2023-12-28T06:38:25;100833.56;;;10.56;71.07
49461;BME280;35355;49.198;-0.368;2023-12-28T06:40:58;100826.69;;;10.53;71.29
49461;BME280;35355;49.198;-0.368;2023-12-28T06:43:24;100826.44;;;10.55;71.22
49461;BME280;35355;49.198;-0.368;2023-12-28T06:45:52;100840.16;;;10.60;71.32
49461;BME280;35355;49.198;-0.368;2023-12-28T06:48:20;100835.50;;;10.61;70.84
49461;BME280;35355;49.198;-0.368;2023-12-28T06:50:48;100845.09;;;10.63;70.83
49461;BME280;35355;49.198;-0.368;2023-12-28T06:53:14;100834.69;;;10.60;71.02
49461;BME280;35355;49.198;-0.368;2023-12-28T06:55:40;100835.22;;;10.57;71.00
49461;BME280;35355;49.198;-0.368;2023-12-28T06:58:10;100835.22;;;10.57;70.81
49461;BME280;35355;49.198;-0.368;2023-12-28T07:00:38;100831.38;;;10.58;70.79
49461;BME280;35355;49.198;-0.368;2023-12-28T07:03:10;100834.69;;;10.60;70.88
49461;BME280;35355;49.198;-0.368;2023-12-28T07:05:35;100834.69;;;10.60;70.80
49461;BME280;35355;49.198;-0.368;2023-12-28T07:08:01;100817.38;;;10.49;70.66
49461;BME280;35355;49.198;-0.368;2023-12-28T07:10:32;100822.56;;;10.51;71.13
49461;BME280;35355;49.198;-0.368;2023-12-28T07:13:04;100821.50;;;10.52;71.10
49461;BME280;35355;49.198;-0.368;2023-12-28T07:15:30;100836.53;;;10.55;71.16
49461;BME280;35355;49.198;-0.368;2023-12-28T07:17:58;100822.53;;;10.46;70.83
49461;BME280;35355;49.198;-0.368;2023-12-28T07:20:23;100825.03;;;10.47;70.81
49461;BME280;35355;49.198;-0.368;2023-12-28T07:22:49;100829.59;;;10.42;70.90
49461;BME280;35355;49.198;-0.368;2023-12-28T07:25:15;100829.34;;;10.43;71.21
49461;BME280;35355;49.198;-0.368;2023-12-28T07:27:41;100836.13;;;10.41;70.81
49461;BME280;35355;49.198;-0.368;2023-12-28T07:30:07;100839.97;;;10.40;71.25
49461;BME280;35355;49.198;-0.368;2023-12-28T07:32:39;100831.19;;;10.38;71.33
49461;BME280;35355;49.198;-0.368;2023-12-28T07:35:05;100830.63;;;10.35;71.13
49461;BME280;35355;49.198;-0.368;2023-12-28T07:37:30;100853.03;;;10.38;71.06
49461;BME280;35355;49.198;-0.368;2023-12-28T07:40:00;100832.72;;;10.28;71.22
49461;BME280;35355;49.198;-0.368;2023-12-28T07:42:35;100848.06;;;10.34;71.10
49461;BME280;35355;49.198;-0.368;2023-12-28T07:45:04;100858.47;;;10.38;71.30
49461;BME280;35355;49.198;-0.368;2023-12-28T07:47:36;100856.00;;;10.36;71.31
49461;BME280;35355;49.198;-0.368;2023-12-28T07:50:02;100846.44;;;10.33;71.13
49461;BME280;35355;49.198;-0.368;2023-12-28T07:52:28;100853.53;;;10.34;71.07
49461;BME280;35355;49.198;-0.368;2023-12-28T07:55:05;100835.97;;;10.25;71.03
49461;BME280;35355;49.198;-0.368;2023-12-28T07:57:31;100855.75;;;10.38;71.14
49461;BME280;35355;49.198;-0.368;2023-12-28T07:59:56;100856.34;;;10.40;71.37
49461;BME280;35355;49.198;-0.368;2023-12-28T08:02:22;100859.63;;;10.42;71.16
49461;BME280;35355;49.198;-0.368;2023-12-28T08:04:50;100862.09;;;10.43;71.15
49461;BME280;35355;49.198;-0.368;2023-12-28T08:07:19;100867.28;;;10.45;71.22
49461;BME280;35355;49.198;-0.368;2023-12-28T08:09:47;100869.19;;;10.44;70.97
49461;BME280;35355;49.198;-0.368;2023-12-28T08:12:12;100863.75;;;10.44;71.20
49461;BME280;35355;49.198;-0.368;2023-12-28T08:14:38;100862.66;;;10.45;71.11
49461;BME280;35355;49.198;-0.368;2023-12-28T08:17:04;100863.47;;;10.46;70.91
49461;BME280;35355;49.198;-0.368;2023-12-28T08:19:29;100869.50;;;10.48;70.87
49461;BME280;35355;49.198;-0.368;2023-12-28T08:21:57;100866.75;;;10.48;70.68
49461;BME280;35355;49.198;-0.368;2023-12-28T08:24:23;100866.75;;;10.48;70.67
49461;BME280;35355;49.198;-0.368;2023-12-28T08:26:48;100856.44;;;10.50;70.97
49461;BME280;35355;49.198;-0.368;2023-12-28T08:29:14;100865.16;;;10.52;70.71
49461;BME280;35355;49.198;-0.368;2023-12-28T08:31:42;100859.19;;;10.55;70.66
49461;BME280;35355;49.198;-0.368;2023-12-28T08:34:11;100858.69;;;10.58;70.90
49461;BME280;35355;49.198;-0.368;2023-12-28T08:36:40;100847.75;;;10.58;70.85
49461;BME280;35355;49.198;-0.368;2023-12-28T08:39:15;100857.34;;;10.61;70.50
49461;BME280;35355;49.198;-0.368;2023-12-28T08:41:41;100853.22;;;10.58;70.46
49461;BME280;35355;49.198;-0.368;2023-12-28T08:44:07;100859.91;;;10.73;70.58
49461;BME280;35355;49.198;-0.368;2023-12-28T08:46:38;100857.72;;;10.75;70.60
49461;BME280;35355;49.198;-0.368;2023-12-28T08:49:07;100861.03;;;10.77;70.33
49461;BME280;35355;49.198;-0.368;2023-12-28T08:51:32;100855.56;;;10.77;70.35
49461;BME280;35355;49.198;-0.368;2023-12-28T08:53:58;100856.72;;;10.81;70.48
49461;BME280;35355;49.198;-0.368;2023-12-28T08:56:24;100848.00;;;10.84;70.44
49461;BME280;35355;49.198;-0.368;2023-12-28T08:58:50;100848.53;;;10.86;70.48
49461;BME280;35355;49.198;-0.368;2023-12-28T09:01:21;100857.31;;;10.88;70.56
49461;BME280;35355;49.198;-0.368;2023-12-28T09:03:53;100858.38;;;10.87;70.49
49461;BME280;35355;49.198;-0.368;2023-12-28T09:06:24;100867.19;;;10.94;70.29
49461;BME280;35355;49.198;-0.368;2023-12-28T09:08:51;100867.19;;;10.94;70.53
49461;BME280;35355;49.198;-0.368;2023-12-28T09:11:18;100869.41;;;10.97;70.59
49461;BME280;35355;49.198;-0.368;2023-12-28T09:13:44;100866.09;;;10.95;70.14
49461;BME280;35355;49.198;-0.368;2023-12-28T09:16:12;100882.28;;;11.07;70.43
49461;BME280;35355;49.198;-0.368;2023-12-28T09:18:38;100886.41;;;11.10;70.25
49461;BME280;35355;49.198;-0.368;2023-12-28T09:21:05;100889.72;;;11.12;70.33
49461;BME280;35355;49.198;-0.368;2023-12-28T09:23:37;100890.81;;;11.16;70.42
49461;BME280;35355;49.198;-0.368;2023-12-28T09:26:04;100888.09;;;11.16;70.36
49461;BME280;35355;49.198;-0.368;2023-12-28T09:28:36;100876.63;;;11.14;70.51
49461;BME280;35355;49.198;-0.368;2023-12-28T09:31:02;100890.38;;;11.29;69.77
49461;BME280;35355;49.198;-0.368;2023-12-28T09:33:28;100882.19;;;11.29;70.41
49461;BME280;35355;49.198;-0.368;2023-12-28T09:35:56;100886.03;;;11.33;70.19
49461;BME280;35355;49.198;-0.368;2023-12-28T09:38:22;100889.91;;;11.37;69.78
49461;BME280;35355;49.198;-0.368;2023-12-28T09:40:51;100897.56;;;11.40;69.74
49461;BME280;35355;49.198;-0.368;2023-12-28T09:43:22;100895.91;;;11.39;70.34
49461;BME280;35355;49.198;-0.368;2023-12-28T09:45:49;100894.31;;;11.44;69.93
49461;BME280;35355;49.198;-0.368;2023-12-28T09:48:19;100903.56;;;11.43;70.00
49461;BME280;35355;49.198;-0.368;2023-12-28T09:50:50;100887.19;;;11.43;69.73
49461;BME280;35355;49.198;-0.368;2023-12-28T09:53:16;100900.63;;;11.49;69.53
49461;BME280;35355;49.198;-0.368;2023-12-28T09:55:42;100893.25;;;11.50;69.72
49461;BME280;35355;49.198;-0.368;2023-12-28T09:58:13;100887.78;;;11.50;69.49
49461;BME280;35355;49.198;-0.368;2023-12-28T10:00:44;100895.22;;;11.59;69.95
49461;BME280;35355;49.198;-0.368;2023-12-28T10:03:14;100902.88;;;11.63;69.31
49461;BME280;35355;49.198;-0.368;2023-12-28T10:05:46;100905.94;;;11.66;69.36
49461;BME280;35355;49.198;-0.368;2023-12-28T10:08:13;100900.19;;;11.68;69.48
49461;BME280;35355;49.198;-0.368;2023-12-28T10:10:43;100892.28;;;11.71;69.35
49461;BME280;35355;49.198;-0.368;2023-12-28T10:13:12;100915.81;;;11.77;69.42
49461;BME280;35355;49.198;-0.368;2023-12-28T10:15:38;100906.00;;;11.82;69.29
49461;BME280;35355;49.198;-0.368;2023-12-28T10:18:09;100913.13;;;11.83;69.46
49461;BME280;35355;49.198;-0.368;2023-12-28T10:20:35;100900.00;;;11.80;68.88
49461;BME280;35355;49.198;-0.368;2023-12-28T10:23:01;100903.28;;;11.82;69.22
49461;BME280;35355;49.198;-0.368;2023-12-28T10:25:27;100891.47;;;11.76;68.89
49461;BME280;35355;49.198;-0.368;2023-12-28T10:27:56;100913.13;;;11.88;68.71
49461;BME280;35355;49.198;-0.368;2023-12-28T10:30:22;100909.59;;;11.87;68.54
49461;BME280;35355;49.198;-0.368;2023-12-28T10:32:49;100898.91;;;11.86;68.53
49461;BME280;35355;49.198;-0.368;2023-12-28T10:35:14;100886.31;;;11.80;68.52
49461;BME280;35355;49.198;-0.368;2023-12-28T10:37:43;100889.34;;;11.88;68.68
49461;BME280;35355;49.198;-0.368;2023-12-28T10:40:13;100892.94;;;11.94;68.86
49461;BME280;35355;49.198;-0.368;2023-12-28T10:42:50;100883.66;;;11.95;68.70
49461;BME280;35355;49.198;-0.368;2023-12-28T10:45:19;100873.22;;;11.92;68.22
49461;BME280;35355;49.198;-0.368;2023-12-28T10:48:19;100863.69;;;11.95;68.64
49461;BME280;35355;49.198;-0.368;2023-12-28T10:50:48;100880.38;;;11.98;67.85
49461;BME280;35355;49.198;-0.368;2023-12-28T10:53:36;100876.56;;;11.99;68.60
49461;BME280;35355;49.198;-0.368;2023-12-28T11:01:46;100872.75;;;12.00;68.08
49461;BME280;35355;49.198;-0.368;2023-12-28T11:07:03;100882.34;;;12.13;67.97
49461;BME280;35355;49.198;-0.368;2023-12-28T11:09:34;100879.63;;;12.13;67.93
49461;BME280;35355;49.198;-0.368;2023-12-28T11:12:00;100873.34;;;12.18;67.35
49461;BME280;35355;49.198;-0.368;2023-12-28T11:14:27;100871.16;;;12.20;67.63
49461;BME280;35355;49.198;-0.368;2023-12-28T11:16:53;100874.44;;;12.22;67.56
49461;BME280;35355;49.198;-0.368;2023-12-28T11:19:20;100876.38;;;12.21;67.55
49461;BME280;35355;49.198;-0.368;2023-12-28T11:21:50;100868.44;;;12.25;66.92
49461;BME280;35355;49.198;-0.368;2023-12-28T11:24:16;100880.50;;;12.24;66.96
49461;BME280;35355;49.198;-0.368;2023-12-28T11:26:42;100883.22;;;12.24;66.77
49461;BME280;35355;49.198;-0.368;2023-12-28T11:29:08;100873.38;;;12.23;66.85
49461;BME280;35355;49.198;-0.368;2023-12-28T11:31:34;100876.91;;;12.23;67.19
49461;BME280;35355;49.198;-0.368;2023-12-28T11:34:00;100879.38;;;12.25;66.78
49461;BME280;35355;49.198;-0.368;2023-12-28T11:39:01;100880.50;;;12.29;66.84
49461;BME280;35355;49.198;-0.368;2023-12-28T11:41:26;100877.47;;;12.31;66.81
49461;BME280;35355;49.198;-0.368;2023-12-28T11:43:53;100882.97;;;12.31;66.53
49461;BME280;35355;49.198;-0.368;2023-12-28T11:46:20;100879.94;;;12.32;66.76
49461;BME280;35355;49.198;-0.368;2023-12-28T11:48:47;100874.78;;;12.36;66.57
49461;BME280;35355;49.198;-0.368;2023-12-28T11:51:13;100869.56;;;12.39;66.27
49461;BME280;35355;49.198;-0.368;2023-12-28T11:53:38;100857.25;;;12.42;66.24
49461;BME280;35355;49.198;-0.368;2023-12-28T11:56:05;100855.88;;;12.44;66.29
49461;BME280;35355;49.198;-0.368;2023-12-28T11:58:34;100850.97;;;12.46;66.08
49461;BME280;35355;49.198;-0.368;2023-12-28T12:01:03;100846.59;;;12.51;66.32
49461;BME280;35355;49.198;-0.368;2023-12-28T12:03:28;100846.03;;;12.49;66.10
49461;BME280;35355;49.198;-0.368;2023-12-28T12:05:55;100848.78;;;12.54;66.33
49461;BME280;35355;49.198;-0.368;2023-12-28T12:08:22;100834.81;;;12.55;66.03
49461;BME280;35355;49.198;-0.368;2023-12-28T12:10:48;100837.28;;;12.57;66.09
49461;BME280;35355;49.198;-0.368;2023-12-28T12:13:20;100823.88;;;12.55;65.95
49461;BME280;35355;49.198;-0.368;2023-12-28T12:15:50;100822.78;;;12.56;65.78
49461;BME280;35355;49.198;-0.368;2023-12-28T12:18:21;100816.47;;;12.51;65.83
49461;BME280;35355;49.198;-0.368;2023-12-28T12:20:49;100817.28;;;12.51;65.67
49461;BME280;35355;49.198;-0.368;2023-12-28T12:23:15;100811.56;;;12.48;65.61
49461;BME280;35355;49.198;-0.368;2023-12-28T12:25:41;100819.19;;;12.45;65.76
49461;BME280;35355;49.198;-0.368;2023-12-28T12:28:10;100815.94;;;12.43;66.02
49461;BME280;35355;49.198;-0.368;2023-12-28T12:30:36;100820.56;;;12.43;65.90
49461;BME280;35355;49.198;-0.368;2023-12-28T12:33:01;100805.53;;;12.40;65.74
49461;BME280;35355;49.198;-0.368;2023-12-28T12:35:28;100811.53;;;12.42;66.14
49461;BME280;35355;49.198;-0.368;2023-12-28T12:37:56;100804.69;;;12.45;65.88
49461;BME280;35355;49.198;-0.368;2023-12-28T12:40:22;100802.78;;;12.45;65.57
49461;BME280;35355;49.198;-0.368;2023-12-28T12:42:54;100800.03;;;12.45;65.94
49461;BME280;35355;49.198;-0.368;2023-12-28T12:45:21;100808.81;;;12.53;65.68
49461;BME280;35355;49.198;-0.368;2023-12-28T12:47:53;100799.50;;;12.54;66.03
49461;BME280;35355;49.198;-0.368;2023-12-28T12:50:19;100806.59;;;12.55;65.46
49461;BME280;35355;49.198;-0.368;2023-12-28T12:52:47;100802.22;;;12.59;65.36
49461;BME280;35355;49.198;-0.368;2023-12-28T12:55:13;100799.22;;;12.60;65.56
49461;BME280;35355;49.198;-0.368;2023-12-28T12:57:49;100792.94;;;12.60;64.96